BTK55 WAMM-WAJJ
Flight info
| Callsign | BTK55 |
|---|---|
| Flight time | 2h 54m |
| Altitude | 35000 |
| Route | HALMO1L HALMO W61 BIK W41 KUBIA KUBIA2B |
| Aircraft | B738/M-V/N |
Departure
| Time | 2026-04-25 04:26 |
|---|---|
| Airport | Sam Ratulangi International Airport (WAMM) |
Arrival
| Time | 2026-04-25 07:21 |
|---|---|
| Airport | Dortheys Hiyo Eluay International Airport (WAJJ) |
| Time | Latitude | Longitude | Altitude | Speed | Heading |
|---|---|---|---|---|---|
| 2026-04-25 03:45 | 1.54110 | 124.92336 | 305 ft | 0 kts | 271° |
| 2026-04-25 04:19 | 1.54110 | 124.92339 | 304 ft | 0 kts | 271° |
| 2026-04-25 04:19 | 1.54110 | 124.92349 | 304 ft | 2 kts | 263° |
| 2026-04-25 04:19 | 1.54113 | 124.92364 | 305 ft | 2 kts | 251° |
| 2026-04-25 04:20 | 1.54120 | 124.92378 | 305 ft | 2 kts | 239° |
| 2026-04-25 04:20 | 1.54128 | 124.92390 | 305 ft | 2 kts | 228° |
| 2026-04-25 04:20 | 1.54139 | 124.92400 | 306 ft | 2 kts | 217° |
| 2026-04-25 04:20 | 1.54152 | 124.92408 | 306 ft | 2 kts | 205° |
| 2026-04-25 04:21 | 1.54166 | 124.92413 | 307 ft | 2 kts | 194° |
| 2026-04-25 04:21 | 1.54180 | 124.92416 | 307 ft | 1 kts | 182° |
| 2026-04-25 04:21 | 1.54186 | 124.92416 | 306 ft | 0 kts | 179° |
| 2026-04-25 04:21 | 1.54187 | 124.92416 | 306 ft | 0 kts | 180° |
| 2026-04-25 04:22 | 1.54180 | 124.92416 | 306 ft | 4 kts | 179° |
| 2026-04-25 04:22 | 1.54121 | 124.92414 | 305 ft | 13 kts | 181° |
| 2026-04-25 04:22 | 1.53995 | 124.92421 | 304 ft | 22 kts | 161° |
| 2026-04-25 04:23 | 1.53845 | 124.92435 | 303 ft | 21 kts | 182° |
| 2026-04-25 04:23 | 1.53760 | 124.92449 | 303 ft | 5 kts | 121° |
| 2026-04-25 04:23 | 1.53758 | 124.92451 | 303 ft | 0 kts | 115° |
| 2026-04-25 04:23 | 1.53754 | 124.92463 | 303 ft | 4 kts | 108° |
| 2026-04-25 04:24 | 1.53748 | 124.92495 | 304 ft | 0 kts | 95° |
| 2026-04-25 04:25 | 1.53748 | 124.92499 | 304 ft | 2 kts | 95° |
| 2026-04-25 04:25 | 1.53745 | 124.92536 | 305 ft | 9 kts | 91° |
| 2026-04-25 04:25 | 1.53797 | 124.92600 | 307 ft | 18 kts | 7° |
| 2026-04-25 04:25 | 1.54165 | 124.92612 | 310 ft | 88 kts | 0° |
| 2026-04-25 04:26 | 1.55002 | 124.92638 | 304 ft | 149 kts | 1° |
| 2026-04-25 04:26 | 1.56146 | 124.92669 | 671 ft | 170 kts | 3° |
| 2026-04-25 04:26 | 1.57386 | 124.92603 | 1166 ft | 188 kts | 356° |
| 2026-04-25 04:26 | 1.58676 | 124.92360 | 1950 ft | 189 kts | 350° |
| 2026-04-25 04:27 | 1.59936 | 124.92035 | 2746 ft | 189 kts | 347° |
| 2026-04-25 04:27 | 1.61281 | 124.91658 | 3155 ft | 212 kts | 348° |
| 2026-04-25 04:27 | 1.62729 | 124.91224 | 3622 ft | 232 kts | 346° |
| 2026-04-25 04:27 | 1.64345 | 124.90742 | 4230 ft | 247 kts | 348° |
| 2026-04-25 04:28 | 1.66024 | 124.90366 | 5047 ft | 254 kts | 354° |
| 2026-04-25 04:28 | 1.67824 | 124.90399 | 5684 ft | 264 kts | 16° |
| 2026-04-25 04:28 | 1.69549 | 124.91087 | 6481 ft | 270 kts | 28° |
| 2026-04-25 04:28 | 1.71220 | 124.91955 | 7339 ft | 274 kts | 30° |
| 2026-04-25 04:29 | 1.72915 | 124.92838 | 8216 ft | 277 kts | 29° |
| 2026-04-25 04:29 | 1.74648 | 124.93719 | 9065 ft | 281 kts | 28° |
| 2026-04-25 04:29 | 1.76394 | 124.94591 | 9850 ft | 287 kts | 28° |
| 2026-04-25 04:29 | 1.78201 | 124.95492 | 10523 ft | 297 kts | 28° |
| 2026-04-25 04:30 | 1.80101 | 124.96441 | 11042 ft | 312 kts | 29° |
| 2026-04-25 04:30 | 1.82005 | 124.97597 | 11478 ft | 327 kts | 39° |
| 2026-04-25 04:30 | 1.83608 | 124.99239 | 11935 ft | 338 kts | 56° |
| 2026-04-25 04:30 | 1.84703 | 125.01356 | 12613 ft | 344 kts | 71° |
| 2026-04-25 04:31 | 1.85314 | 125.03645 | 13300 ft | 348 kts | 80° |
| 2026-04-25 04:31 | 1.85447 | 125.06074 | 13995 ft | 353 kts | 95° |
| 2026-04-25 04:31 | 1.84836 | 125.08449 | 14757 ft | 355 kts | 112° |
| 2026-04-25 04:31 | 1.83771 | 125.10641 | 15447 ft | 358 kts | 116° |
| 2026-04-25 04:32 | 1.82588 | 125.12874 | 16117 ft | 362 kts | 117° |
| 2026-04-25 04:32 | 1.81410 | 125.15067 | 16810 ft | 364 kts | 117° |
| 2026-04-25 04:32 | 1.80201 | 125.17327 | 17418 ft | 369 kts | 117° |
| 2026-04-25 04:32 | 1.78995 | 125.19599 | 18065 ft | 372 kts | 117° |
| 2026-04-25 04:33 | 1.77778 | 125.21892 | 18690 ft | 375 kts | 117° |
| 2026-04-25 04:33 | 1.76536 | 125.24160 | 19259 ft | 379 kts | 118° |
| 2026-04-25 04:33 | 1.75239 | 125.26485 | 19841 ft | 383 kts | 118° |
| 2026-04-25 04:33 | 1.73936 | 125.28805 | 20360 ft | 387 kts | 118° |
| 2026-04-25 04:34 | 1.72603 | 125.31179 | 20926 ft | 390 kts | 118° |
| 2026-04-25 04:34 | 1.71284 | 125.33534 | 21411 ft | 395 kts | 118° |
| 2026-04-25 04:34 | 1.69932 | 125.35950 | 21941 ft | 398 kts | 118° |
| 2026-04-25 04:34 | 1.68574 | 125.38384 | 22452 ft | 401 kts | 118° |
| 2026-04-25 04:35 | 1.67213 | 125.40826 | 22981 ft | 404 kts | 118° |
| 2026-04-25 04:35 | 1.65900 | 125.43184 | 23492 ft | 406 kts | 118° |
| 2026-04-25 04:35 | 1.64520 | 125.45663 | 23974 ft | 409 kts | 118° |
| 2026-04-25 04:35 | 1.63139 | 125.48144 | 24515 ft | 411 kts | 118° |
| 2026-04-25 04:36 | 1.61759 | 125.50624 | 24944 ft | 414 kts | 118° |
| 2026-04-25 04:36 | 1.60339 | 125.53176 | 25464 ft | 416 kts | 117° |
| 2026-04-25 04:36 | 1.58929 | 125.55712 | 25890 ft | 419 kts | 118° |
| 2026-04-25 04:36 | 1.57529 | 125.58227 | 26379 ft | 421 kts | 117° |
| 2026-04-25 04:37 | 1.56090 | 125.60813 | 26802 ft | 424 kts | 117° |
| 2026-04-25 04:37 | 1.54654 | 125.63395 | 27246 ft | 426 kts | 117° |
| 2026-04-25 04:37 | 1.53214 | 125.65984 | 27662 ft | 428 kts | 117° |
| 2026-04-25 04:37 | 1.51773 | 125.68572 | 28107 ft | 430 kts | 117° |
| 2026-04-25 04:38 | 1.50325 | 125.71176 | 28486 ft | 433 kts | 117° |
| 2026-04-25 04:38 | 1.48852 | 125.73824 | 28905 ft | 435 kts | 117° |
| 2026-04-25 04:38 | 1.47377 | 125.76475 | 29258 ft | 439 kts | 117° |
| 2026-04-25 04:38 | 1.45883 | 125.79161 | 29632 ft | 442 kts | 117° |
| 2026-04-25 04:39 | 1.44401 | 125.81823 | 30050 ft | 444 kts | 117° |
| 2026-04-25 04:39 | 1.42895 | 125.84529 | 30408 ft | 447 kts | 117° |
| 2026-04-25 04:39 | 1.41392 | 125.87228 | 30783 ft | 449 kts | 117° |
| 2026-04-25 04:39 | 1.39854 | 125.89990 | 31165 ft | 451 kts | 117° |
| 2026-04-25 04:40 | 1.38332 | 125.92725 | 31591 ft | 452 kts | 118° |
| 2026-04-25 04:40 | 1.36810 | 125.95460 | 32176 ft | 448 kts | 118° |
| 2026-04-25 04:40 | 1.35301 | 125.98171 | 32690 ft | 446 kts | 118° |
| 2026-04-25 04:40 | 1.33811 | 126.00846 | 33258 ft | 444 kts | 118° |
| 2026-04-25 04:41 | 1.32306 | 126.03550 | 33749 ft | 443 kts | 117° |
| 2026-04-25 04:41 | 1.30821 | 126.06217 | 34267 ft | 440 kts | 117° |
| 2026-04-25 04:41 | 1.29330 | 126.08892 | 34765 ft | 438 kts | 117° |
| 2026-04-25 04:42 | 1.26357 | 126.14237 | 34865 ft | 440 kts | 117° |
| 2026-04-25 04:42 | 1.23399 | 126.19552 | 34865 ft | 437 kts | 117° |
| 2026-04-25 04:43 | 1.20430 | 126.24891 | 34864 ft | 438 kts | 117° |
| 2026-04-25 04:43 | 1.17472 | 126.30210 | 34861 ft | 438 kts | 117° |
| 2026-04-25 04:44 | 1.14518 | 126.35524 | 34859 ft | 438 kts | 117° |
| 2026-04-25 04:44 | 1.11566 | 126.40833 | 34855 ft | 437 kts | 117° |
| 2026-04-25 04:45 | 1.08614 | 126.46139 | 34852 ft | 437 kts | 117° |
| 2026-04-25 04:45 | 1.05671 | 126.51425 | 34850 ft | 438 kts | 117° |
| 2026-04-25 04:46 | 1.02799 | 126.56831 | 34844 ft | 437 kts | 112° |
| 2026-04-25 04:46 | 1.00817 | 126.62558 | 34844 ft | 435 kts | 103° |
| 2026-04-25 04:47 | 0.99538 | 126.68431 | 34842 ft | 435 kts | 100° |
| 2026-04-25 04:47 | 0.98438 | 126.74408 | 34842 ft | 435 kts | 99° |
| 2026-04-25 04:48 | 0.97359 | 126.80348 | 34842 ft | 435 kts | 99° |
| 2026-04-25 04:48 | 0.96260 | 126.86286 | 34842 ft | 434 kts | 99° |
| 2026-04-25 04:49 | 0.95151 | 126.92188 | 34842 ft | 435 kts | 99° |
| 2026-04-25 04:49 | 0.94028 | 126.98119 | 34842 ft | 436 kts | 100° |
| 2026-04-25 04:50 | 0.92901 | 127.04050 | 34842 ft | 435 kts | 100° |
| 2026-04-25 04:50 | 0.91771 | 127.09979 | 34842 ft | 435 kts | 100° |
| 2026-04-25 04:51 | 0.90645 | 127.15895 | 34842 ft | 433 kts | 100° |
| 2026-04-25 04:51 | 0.89521 | 127.21802 | 34846 ft | 434 kts | 100° |
| 2026-04-25 04:52 | 0.88396 | 127.27721 | 34854 ft | 433 kts | 100° |
| 2026-04-25 04:52 | 0.87264 | 127.33671 | 34860 ft | 435 kts | 99° |
| 2026-04-25 04:53 | 0.86140 | 127.39583 | 34865 ft | 433 kts | 99° |
| 2026-04-25 04:53 | 0.85020 | 127.45467 | 34867 ft | 432 kts | 99° |
| 2026-04-25 04:54 | 0.83893 | 127.51387 | 34868 ft | 432 kts | 100° |
| 2026-04-25 04:54 | 0.82769 | 127.57291 | 34871 ft | 433 kts | 100° |
| 2026-04-25 04:55 | 0.81651 | 127.63171 | 34875 ft | 433 kts | 100° |
| 2026-04-25 04:55 | 0.80524 | 127.69088 | 34879 ft | 434 kts | 100° |
| 2026-04-25 04:56 | 0.79397 | 127.75002 | 34885 ft | 434 kts | 100° |
| 2026-04-25 04:56 | 0.78268 | 127.80933 | 34896 ft | 431 kts | 100° |
| 2026-04-25 04:57 | 0.77152 | 127.86794 | 34910 ft | 434 kts | 100° |
| 2026-04-25 04:57 | 0.76025 | 127.92713 | 34919 ft | 432 kts | 100° |
| 2026-04-25 04:58 | 0.74911 | 127.98567 | 34929 ft | 432 kts | 100° |
| 2026-04-25 04:58 | 0.73781 | 128.04503 | 34918 ft | 432 kts | 100° |
| 2026-04-25 04:59 | 0.72659 | 128.10396 | 34897 ft | 432 kts | 100° |
| 2026-04-25 04:59 | 0.71544 | 128.16252 | 34877 ft | 431 kts | 99° |
| 2026-04-25 05:00 | 0.70420 | 128.22150 | 34861 ft | 432 kts | 100° |
| 2026-04-25 05:00 | 0.69301 | 128.28026 | 34850 ft | 432 kts | 100° |
| 2026-04-25 05:01 | 0.68175 | 128.33933 | 34854 ft | 433 kts | 100° |
| 2026-04-25 05:01 | 0.67047 | 128.39835 | 34854 ft | 432 kts | 100° |
| 2026-04-25 05:02 | 0.65745 | 128.45686 | 34853 ft | 433 kts | 102° |
| 2026-04-25 05:02 | 0.64315 | 128.51500 | 34853 ft | 431 kts | 103° |
| 2026-04-25 05:03 | 0.62879 | 128.57320 | 34851 ft | 432 kts | 103° |
| 2026-04-25 05:03 | 0.61456 | 128.63153 | 35208 ft | 430 kts | 102° |
| 2026-04-25 05:03 | 0.60759 | 128.66032 | 35493 ft | 431 kts | 102° |
| 2026-04-25 05:04 | 0.60056 | 128.68951 | 35776 ft | 431 kts | 102° |
| 2026-04-25 05:04 | 0.58650 | 128.74811 | 35842 ft | 433 kts | 102° |
| 2026-04-25 05:05 | 0.57256 | 128.80624 | 35843 ft | 430 kts | 102° |
| 2026-04-25 05:05 | 0.55871 | 128.86410 | 35843 ft | 432 kts | 102° |
| 2026-04-25 05:06 | 0.54468 | 128.92273 | 35718 ft | 430 kts | 102° |
| 2026-04-25 05:06 | 0.53077 | 128.98082 | 35661 ft | 436 kts | 102° |
| 2026-04-25 05:06 | 0.52377 | 129.01013 | 36157 ft | 433 kts | 102° |
| 2026-04-25 05:07 | 0.51687 | 129.03894 | 36692 ft | 429 kts | 102° |
| 2026-04-25 05:07 | 0.50986 | 129.06822 | 36846 ft | 432 kts | 102° |
| 2026-04-25 05:07 | 0.50290 | 129.09731 | 36840 ft | 431 kts | 102° |
| 2026-04-25 05:08 | 0.48897 | 129.15549 | 36841 ft | 429 kts | 102° |
| 2026-04-25 05:08 | 0.47509 | 129.21332 | 36848 ft | 430 kts | 102° |
| 2026-04-25 05:09 | 0.46114 | 129.27125 | 36856 ft | 429 kts | 102° |
| 2026-04-25 05:09 | 0.44722 | 129.32895 | 36861 ft | 428 kts | 102° |
| 2026-04-25 05:10 | 0.43324 | 129.38704 | 36863 ft | 430 kts | 102° |
| 2026-04-25 05:10 | 0.41936 | 129.44479 | 36863 ft | 428 kts | 102° |
| 2026-04-25 05:11 | 0.40541 | 129.50267 | 36863 ft | 429 kts | 102° |
| 2026-04-25 05:11 | 0.39146 | 129.56061 | 36863 ft | 429 kts | 102° |
| 2026-04-25 05:12 | 0.37055 | 129.64746 | 36864 ft | 429 kts | 102° |
| 2026-04-25 05:12 | 0.35667 | 129.70509 | 36863 ft | 429 kts | 102° |
| 2026-04-25 05:13 | 0.34275 | 129.76296 | 36862 ft | 429 kts | 102° |
| 2026-04-25 05:13 | 0.32886 | 129.82066 | 36856 ft | 429 kts | 102° |
| 2026-04-25 05:14 | 0.31493 | 129.87852 | 36849 ft | 429 kts | 102° |
| 2026-04-25 05:15 | 0.29404 | 129.96530 | 36844 ft | 429 kts | 102° |
| 2026-04-25 05:15 | 0.28012 | 130.02303 | 36843 ft | 430 kts | 102° |
| 2026-04-25 05:16 | 0.26622 | 130.08070 | 36842 ft | 429 kts | 102° |
| 2026-04-25 05:16 | 0.25233 | 130.13846 | 36842 ft | 428 kts | 102° |
| 2026-04-25 05:17 | 0.23839 | 130.19634 | 36842 ft | 429 kts | 102° |
| 2026-04-25 05:17 | 0.22443 | 130.25427 | 36842 ft | 428 kts | 102° |
| 2026-04-25 05:18 | 0.21053 | 130.31200 | 36842 ft | 429 kts | 102° |
| 2026-04-25 05:18 | 0.19656 | 130.36997 | 36842 ft | 429 kts | 102° |
| 2026-04-25 05:19 | 0.18267 | 130.42766 | 36842 ft | 430 kts | 102° |
| 2026-04-25 05:19 | 0.16871 | 130.48560 | 36841 ft | 429 kts | 102° |
| 2026-04-25 05:20 | 0.15472 | 130.54364 | 36842 ft | 430 kts | 102° |
| 2026-04-25 05:20 | 0.14078 | 130.60150 | 36842 ft | 430 kts | 102° |
| 2026-04-25 05:21 | 0.12684 | 130.65942 | 36843 ft | 430 kts | 102° |
| 2026-04-25 05:21 | 0.11280 | 130.71776 | 36843 ft | 431 kts | 102° |
| 2026-04-25 05:22 | 0.09880 | 130.77586 | 36843 ft | 432 kts | 102° |
| 2026-04-25 05:22 | 0.08482 | 130.83385 | 36843 ft | 432 kts | 102° |
| 2026-04-25 05:23 | 0.07082 | 130.89198 | 36843 ft | 431 kts | 102° |
| 2026-04-25 05:23 | 0.05684 | 130.95003 | 36843 ft | 431 kts | 102° |
| 2026-04-25 05:24 | 0.04283 | 131.00825 | 36843 ft | 430 kts | 102° |
| 2026-04-25 05:24 | 0.02887 | 131.06621 | 36842 ft | 432 kts | 102° |
| 2026-04-25 05:25 | 0.01480 | 131.12463 | 36841 ft | 432 kts | 102° |
| 2026-04-25 05:25 | 0.00077 | 131.18286 | 36839 ft | 433 kts | 102° |
| 2026-04-25 05:26 | -0.01326 | 131.24109 | 36839 ft | 431 kts | 102° |
| 2026-04-25 05:26 | -0.02728 | 131.29924 | 36840 ft | 431 kts | 102° |
| 2026-04-25 05:27 | -0.04121 | 131.35702 | 36839 ft | 431 kts | 102° |
| 2026-04-25 05:27 | -0.05518 | 131.41513 | 36837 ft | 431 kts | 102° |
| 2026-04-25 05:28 | -0.06911 | 131.47317 | 36841 ft | 431 kts | 102° |
| 2026-04-25 05:28 | -0.08314 | 131.53171 | 36844 ft | 431 kts | 102° |
| 2026-04-25 05:29 | -0.09702 | 131.58962 | 36840 ft | 430 kts | 102° |
| 2026-04-25 05:29 | -0.11097 | 131.64775 | 36840 ft | 430 kts | 102° |
| 2026-04-25 05:30 | -0.12482 | 131.70554 | 36841 ft | 431 kts | 102° |
| 2026-04-25 05:30 | -0.13877 | 131.76369 | 36842 ft | 431 kts | 102° |
| 2026-04-25 05:31 | -0.15275 | 131.82199 | 36843 ft | 430 kts | 102° |
| 2026-04-25 05:31 | -0.16662 | 131.87979 | 36843 ft | 430 kts | 102° |
| 2026-04-25 05:32 | -0.18062 | 131.93808 | 36843 ft | 431 kts | 102° |
| 2026-04-25 05:32 | -0.19451 | 131.99593 | 36843 ft | 430 kts | 102° |
| 2026-04-25 05:33 | -0.20843 | 132.05397 | 36843 ft | 429 kts | 102° |
| 2026-04-25 05:33 | -0.22232 | 132.11186 | 36843 ft | 430 kts | 102° |
| 2026-04-25 05:34 | -0.23619 | 132.16965 | 36842 ft | 430 kts | 102° |
| 2026-04-25 05:34 | -0.25012 | 132.22769 | 36840 ft | 430 kts | 102° |
| 2026-04-25 05:35 | -0.26402 | 132.28567 | 36844 ft | 431 kts | 102° |
| 2026-04-25 05:35 | -0.27788 | 132.34349 | 36846 ft | 429 kts | 102° |
| 2026-04-25 05:36 | -0.29176 | 132.40141 | 36850 ft | 429 kts | 102° |
| 2026-04-25 05:36 | -0.30559 | 132.45905 | 36850 ft | 429 kts | 102° |
| 2026-04-25 05:37 | -0.31948 | 132.51692 | 36854 ft | 430 kts | 102° |
| 2026-04-25 05:37 | -0.33346 | 132.57516 | 36863 ft | 429 kts | 102° |
| 2026-04-25 05:38 | -0.34734 | 132.63310 | 36876 ft | 430 kts | 102° |
| 2026-04-25 05:38 | -0.36118 | 132.69083 | 36888 ft | 429 kts | 102° |
| 2026-04-25 05:39 | -0.37511 | 132.74889 | 36908 ft | 430 kts | 102° |
| 2026-04-25 05:39 | -0.38904 | 132.80695 | 36913 ft | 429 kts | 102° |
| 2026-04-25 05:40 | -0.40293 | 132.86487 | 36915 ft | 429 kts | 102° |
| 2026-04-25 05:40 | -0.41677 | 132.92261 | 36923 ft | 430 kts | 102° |
| 2026-04-25 05:41 | -0.43065 | 132.98048 | 36925 ft | 429 kts | 102° |
| 2026-04-25 05:41 | -0.44453 | 133.03842 | 36920 ft | 429 kts | 102° |
| 2026-04-25 05:42 | -0.45848 | 133.09657 | 36903 ft | 430 kts | 102° |
| 2026-04-25 05:42 | -0.47235 | 133.15439 | 36889 ft | 430 kts | 102° |
| 2026-04-25 05:43 | -0.48629 | 133.21242 | 36868 ft | 429 kts | 102° |
| 2026-04-25 05:43 | -0.50014 | 133.27017 | 36845 ft | 429 kts | 102° |
| 2026-04-25 05:44 | -0.51407 | 133.32823 | 36851 ft | 430 kts | 102° |
| 2026-04-25 05:44 | -0.52789 | 133.38592 | 36857 ft | 429 kts | 102° |
| 2026-04-25 05:45 | -0.54173 | 133.44376 | 36860 ft | 429 kts | 102° |
| 2026-04-25 05:45 | -0.55562 | 133.50174 | 36856 ft | 429 kts | 102° |
| 2026-04-25 05:46 | -0.56945 | 133.55933 | 36858 ft | 428 kts | 102° |
| 2026-04-25 05:46 | -0.58338 | 133.61732 | 36859 ft | 429 kts | 102° |
| 2026-04-25 05:47 | -0.59730 | 133.67528 | 36861 ft | 429 kts | 102° |
| 2026-04-25 05:47 | -0.61124 | 133.73341 | 36854 ft | 428 kts | 102° |
| 2026-04-25 05:48 | -0.62516 | 133.79150 | 36855 ft | 427 kts | 102° |
| 2026-04-25 05:48 | -0.63893 | 133.84901 | 36858 ft | 428 kts | 102° |
| 2026-04-25 05:49 | -0.65284 | 133.90712 | 36860 ft | 427 kts | 102° |
| 2026-04-25 05:49 | -0.66663 | 133.96466 | 36858 ft | 429 kts | 102° |
| 2026-04-25 05:50 | -0.68051 | 134.02261 | 36856 ft | 428 kts | 102° |
| 2026-04-25 05:50 | -0.69439 | 134.08052 | 36859 ft | 427 kts | 102° |
| 2026-04-25 05:51 | -0.70823 | 134.13826 | 36858 ft | 427 kts | 102° |
| 2026-04-25 05:51 | -0.72213 | 134.19618 | 36858 ft | 428 kts | 102° |
| 2026-04-25 05:52 | -0.73594 | 134.25385 | 36850 ft | 426 kts | 102° |
| 2026-04-25 05:52 | -0.74976 | 134.31154 | 36852 ft | 427 kts | 102° |
| 2026-04-25 05:53 | -0.76345 | 134.36871 | 36843 ft | 426 kts | 103° |
| 2026-04-25 05:53 | -0.77705 | 134.42554 | 36844 ft | 426 kts | 103° |
| 2026-04-25 05:54 | -0.79092 | 134.48332 | 36842 ft | 426 kts | 103° |
| 2026-04-25 05:54 | -0.81200 | 134.56958 | 36837 ft | 426 kts | 103° |
| 2026-04-25 05:55 | -0.82609 | 134.62698 | 36834 ft | 426 kts | 103° |
| 2026-04-25 05:55 | -0.84012 | 134.68427 | 36833 ft | 425 kts | 103° |
| 2026-04-25 05:56 | -0.85417 | 134.74167 | 36827 ft | 424 kts | 103° |
| 2026-04-25 05:56 | -0.86817 | 134.79894 | 36827 ft | 424 kts | 103° |
| 2026-04-25 05:57 | -0.88211 | 134.85591 | 36824 ft | 424 kts | 103° |
| 2026-04-25 05:57 | -0.89607 | 134.91298 | 36825 ft | 423 kts | 103° |
| 2026-04-25 05:58 | -0.91011 | 134.97034 | 36823 ft | 424 kts | 103° |
| 2026-04-25 05:58 | -0.92413 | 135.02768 | 36822 ft | 424 kts | 103° |
| 2026-04-25 05:59 | -0.93804 | 135.08467 | 36822 ft | 424 kts | 103° |
| 2026-04-25 05:59 | -0.95199 | 135.14175 | 36822 ft | 423 kts | 103° |
| 2026-04-25 06:00 | -0.96596 | 135.19887 | 36821 ft | 423 kts | 103° |
| 2026-04-25 06:00 | -0.98003 | 135.25641 | 36822 ft | 424 kts | 103° |
| 2026-04-25 06:01 | -0.99398 | 135.31352 | 36822 ft | 424 kts | 103° |
| 2026-04-25 06:01 | -1.00788 | 135.37041 | 36821 ft | 422 kts | 103° |
| 2026-04-25 06:02 | -1.02184 | 135.42754 | 36823 ft | 423 kts | 103° |
| 2026-04-25 06:02 | -1.03577 | 135.48454 | 36828 ft | 423 kts | 103° |
| 2026-04-25 06:03 | -1.04972 | 135.54163 | 36833 ft | 425 kts | 103° |
| 2026-04-25 06:03 | -1.06370 | 135.59889 | 36831 ft | 424 kts | 103° |
| 2026-04-25 06:04 | -1.07766 | 135.65601 | 36828 ft | 424 kts | 103° |
| 2026-04-25 06:04 | -1.09162 | 135.71320 | 36827 ft | 423 kts | 103° |
| 2026-04-25 06:05 | -1.10560 | 135.77042 | 36829 ft | 424 kts | 103° |
| 2026-04-25 06:05 | -1.11957 | 135.82758 | 36829 ft | 424 kts | 103° |
| 2026-04-25 06:06 | -1.13358 | 135.88496 | 36831 ft | 424 kts | 103° |
| 2026-04-25 06:06 | -1.14759 | 135.94243 | 36828 ft | 423 kts | 103° |
| 2026-04-25 06:07 | -1.16152 | 135.99950 | 36828 ft | 423 kts | 103° |
| 2026-04-25 06:07 | -1.17541 | 136.05638 | 36829 ft | 425 kts | 103° |
| 2026-04-25 06:08 | -1.19014 | 136.11381 | 36832 ft | 425 kts | 105° |
| 2026-04-25 06:08 | -1.20785 | 136.17000 | 36827 ft | 424 kts | 107° |
| 2026-04-25 06:09 | -1.22637 | 136.22600 | 36826 ft | 423 kts | 107° |
| 2026-04-25 06:09 | -1.24471 | 136.28212 | 36825 ft | 425 kts | 107° |
| 2026-04-25 06:10 | -1.26288 | 136.33847 | 36823 ft | 426 kts | 107° |
| 2026-04-25 06:10 | -1.28088 | 136.39471 | 36820 ft | 425 kts | 107° |
| 2026-04-25 06:11 | -1.29887 | 136.45119 | 36820 ft | 426 kts | 107° |
| 2026-04-25 06:11 | -1.31666 | 136.50708 | 36820 ft | 424 kts | 107° |
| 2026-04-25 06:12 | -1.33462 | 136.56354 | 36818 ft | 425 kts | 107° |
| 2026-04-25 06:12 | -1.35250 | 136.61980 | 36818 ft | 426 kts | 107° |
| 2026-04-25 06:13 | -1.37044 | 136.67625 | 36818 ft | 426 kts | 107° |
| 2026-04-25 06:14 | -1.39730 | 136.76073 | 36815 ft | 426 kts | 107° |
| 2026-04-25 06:14 | -1.41507 | 136.81665 | 36816 ft | 425 kts | 107° |
| 2026-04-25 06:15 | -1.43293 | 136.87285 | 36815 ft | 426 kts | 107° |
| 2026-04-25 06:15 | -1.45089 | 136.92937 | 36813 ft | 427 kts | 107° |
| 2026-04-25 06:16 | -1.46880 | 136.98570 | 36813 ft | 427 kts | 107° |
| 2026-04-25 06:16 | -1.48684 | 137.04250 | 36812 ft | 426 kts | 107° |
| 2026-04-25 06:17 | -1.50474 | 137.09883 | 36813 ft | 427 kts | 107° |
| 2026-04-25 06:17 | -1.52266 | 137.15523 | 36810 ft | 425 kts | 107° |
| 2026-04-25 06:18 | -1.54043 | 137.21121 | 36813 ft | 425 kts | 107° |
| 2026-04-25 06:18 | -1.55845 | 137.26790 | 36807 ft | 426 kts | 107° |
| 2026-04-25 06:19 | -1.57630 | 137.32410 | 36801 ft | 426 kts | 107° |
| 2026-04-25 06:19 | -1.59417 | 137.38039 | 36802 ft | 426 kts | 107° |
| 2026-04-25 06:20 | -1.61205 | 137.43671 | 36802 ft | 426 kts | 107° |
| 2026-04-25 06:20 | -1.62996 | 137.49312 | 36802 ft | 425 kts | 107° |
| 2026-04-25 06:21 | -1.64782 | 137.54936 | 36799 ft | 426 kts | 107° |
| 2026-04-25 06:21 | -1.66576 | 137.60584 | 36800 ft | 425 kts | 107° |
| 2026-04-25 06:22 | -1.68355 | 137.66191 | 36801 ft | 426 kts | 107° |
| 2026-04-25 06:22 | -1.70138 | 137.71809 | 36801 ft | 425 kts | 107° |
| 2026-04-25 06:23 | -1.71926 | 137.77441 | 36796 ft | 425 kts | 107° |
| 2026-04-25 06:23 | -1.73721 | 137.83102 | 36798 ft | 425 kts | 107° |
| 2026-04-25 06:24 | -1.75506 | 137.88733 | 36794 ft | 426 kts | 107° |
| 2026-04-25 06:24 | -1.77290 | 137.94357 | 36793 ft | 426 kts | 107° |
| 2026-04-25 06:25 | -1.79081 | 137.99997 | 36795 ft | 426 kts | 107° |
| 2026-04-25 06:25 | -1.80865 | 138.05606 | 36792 ft | 425 kts | 107° |
| 2026-04-25 06:26 | -1.82656 | 138.11237 | 36797 ft | 425 kts | 107° |
| 2026-04-25 06:26 | -1.84448 | 138.16872 | 36798 ft | 426 kts | 107° |
| 2026-04-25 06:27 | -1.86235 | 138.22490 | 36798 ft | 427 kts | 107° |
| 2026-04-25 06:27 | -1.88032 | 138.28140 | 36806 ft | 427 kts | 107° |
| 2026-04-25 06:28 | -1.89826 | 138.33784 | 36813 ft | 426 kts | 107° |
| 2026-04-25 06:28 | -1.91619 | 138.39416 | 36819 ft | 425 kts | 107° |
| 2026-04-25 06:29 | -1.93403 | 138.45035 | 36821 ft | 424 kts | 107° |
| 2026-04-25 06:29 | -1.95177 | 138.50617 | 36822 ft | 425 kts | 107° |
| 2026-04-25 06:30 | -1.96966 | 138.56251 | 36822 ft | 426 kts | 107° |
| 2026-04-25 06:30 | -1.98751 | 138.61868 | 36823 ft | 424 kts | 107° |
| 2026-04-25 06:31 | -2.00535 | 138.67479 | 36819 ft | 425 kts | 107° |
| 2026-04-25 06:31 | -2.02333 | 138.73138 | 36822 ft | 424 kts | 107° |
| 2026-04-25 06:32 | -2.04111 | 138.78744 | 36824 ft | 425 kts | 107° |
| 2026-04-25 06:32 | -2.05894 | 138.84360 | 36824 ft | 425 kts | 107° |
| 2026-04-25 06:33 | -2.07665 | 138.89938 | 36835 ft | 424 kts | 107° |
| 2026-04-25 06:33 | -2.09441 | 138.95549 | 36835 ft | 423 kts | 107° |
| 2026-04-25 06:34 | -2.11200 | 139.01193 | 36842 ft | 424 kts | 107° |
| 2026-04-25 06:34 | -2.12933 | 139.06787 | 36839 ft | 423 kts | 107° |
| 2026-04-25 06:35 | -2.14654 | 139.12442 | 36829 ft | 425 kts | 106° |
| 2026-04-25 06:35 | -2.16368 | 139.18063 | 36830 ft | 425 kts | 107° |
| 2026-04-25 06:36 | -2.18104 | 139.23691 | 36830 ft | 423 kts | 107° |
| 2026-04-25 06:36 | -2.19834 | 139.29282 | 36828 ft | 423 kts | 107° |
| 2026-04-25 06:37 | -2.21580 | 139.34904 | 36824 ft | 423 kts | 107° |
| 2026-04-25 06:37 | -2.23314 | 139.40485 | 36728 ft | 409 kts | 107° |
| 2026-04-25 06:37 | -2.24152 | 139.43187 | 35786 ft | 405 kts | 106° |
| 2026-04-25 06:38 | -2.24966 | 139.45816 | 35313 ft | 390 kts | 106° |
| 2026-04-25 06:38 | -2.25752 | 139.48349 | 34789 ft | 377 kts | 106° |
| 2026-04-25 06:38 | -2.26511 | 139.50798 | 34280 ft | 365 kts | 106° |
| 2026-04-25 06:38 | -2.27245 | 139.53163 | 34065 ft | 353 kts | 106° |
| 2026-04-25 06:39 | -2.27972 | 139.55501 | 33487 ft | 352 kts | 105° |
| 2026-04-25 06:39 | -2.28695 | 139.57828 | 32992 ft | 348 kts | 105° |
| 2026-04-25 06:39 | -2.29409 | 139.60123 | 32493 ft | 346 kts | 105° |
| 2026-04-25 06:39 | -2.30125 | 139.62430 | 31960 ft | 345 kts | 105° |
| 2026-04-25 06:40 | -2.30833 | 139.64710 | 31469 ft | 343 kts | 106° |
| 2026-04-25 06:40 | -2.31536 | 139.66972 | 30990 ft | 341 kts | 106° |
| 2026-04-25 06:40 | -2.32230 | 139.69206 | 30548 ft | 338 kts | 105° |
| 2026-04-25 06:40 | -2.32924 | 139.71446 | 30087 ft | 336 kts | 106° |
| 2026-04-25 06:41 | -2.33615 | 139.73675 | 29641 ft | 333 kts | 106° |
| 2026-04-25 06:41 | -2.34296 | 139.75874 | 29168 ft | 332 kts | 106° |
| 2026-04-25 06:41 | -2.34970 | 139.78049 | 28677 ft | 331 kts | 107° |
| 2026-04-25 06:41 | -2.35655 | 139.80257 | 28209 ft | 329 kts | 107° |
| 2026-04-25 06:42 | -2.36328 | 139.82417 | 27781 ft | 326 kts | 107° |
| 2026-04-25 06:42 | -2.36999 | 139.84580 | 27348 ft | 324 kts | 107° |
| 2026-04-25 06:42 | -2.37660 | 139.86714 | 26905 ft | 322 kts | 107° |
| 2026-04-25 06:42 | -2.38323 | 139.88849 | 26477 ft | 320 kts | 107° |
| 2026-04-25 06:43 | -2.38976 | 139.90955 | 26050 ft | 318 kts | 107° |
| 2026-04-25 06:43 | -2.39621 | 139.93033 | 25610 ft | 316 kts | 107° |
| 2026-04-25 06:43 | -2.40271 | 139.95131 | 25189 ft | 314 kts | 107° |
| 2026-04-25 06:43 | -2.40919 | 139.97220 | 24814 ft | 310 kts | 107° |
| 2026-04-25 06:44 | -2.41557 | 139.99275 | 24391 ft | 309 kts | 107° |
| 2026-04-25 06:44 | -2.42184 | 140.01294 | 23952 ft | 308 kts | 107° |
| 2026-04-25 06:44 | -2.42820 | 140.03343 | 23520 ft | 306 kts | 107° |
| 2026-04-25 06:44 | -2.43447 | 140.05366 | 23086 ft | 305 kts | 107° |
| 2026-04-25 06:45 | -2.44072 | 140.07384 | 22701 ft | 303 kts | 107° |
| 2026-04-25 06:45 | -2.44691 | 140.09381 | 22293 ft | 301 kts | 107° |
| 2026-04-25 06:45 | -2.45310 | 140.11375 | 21908 ft | 299 kts | 107° |
| 2026-04-25 06:45 | -2.45929 | 140.13371 | 21514 ft | 298 kts | 107° |
| 2026-04-25 06:46 | -2.46547 | 140.15361 | 21114 ft | 298 kts | 107° |
| 2026-04-25 06:46 | -2.47150 | 140.17305 | 20785 ft | 294 kts | 107° |
| 2026-04-25 06:46 | -2.47752 | 140.19249 | 20472 ft | 291 kts | 107° |
| 2026-04-25 06:46 | -2.48351 | 140.21179 | 20066 ft | 291 kts | 106° |
| 2026-04-25 06:47 | -2.48949 | 140.23112 | 19698 ft | 289 kts | 106° |
| 2026-04-25 06:47 | -2.49539 | 140.25012 | 19489 ft | 282 kts | 106° |
| 2026-04-25 06:47 | -2.50111 | 140.26849 | 19341 ft | 272 kts | 106° |
| 2026-04-25 06:47 | -2.50662 | 140.28624 | 19203 ft | 261 kts | 106° |
| 2026-04-25 06:48 | -2.51189 | 140.30315 | 19062 ft | 250 kts | 106° |
| 2026-04-25 06:48 | -2.51689 | 140.31918 | 18946 ft | 236 kts | 106° |
| 2026-04-25 06:48 | -2.52171 | 140.33472 | 18744 ft | 228 kts | 105° |
| 2026-04-25 06:48 | -2.52629 | 140.34938 | 18584 ft | 217 kts | 105° |
| 2026-04-25 06:49 | -2.53068 | 140.36348 | 18438 ft | 209 kts | 105° |
| 2026-04-25 06:49 | -2.53500 | 140.37736 | 18345 ft | 210 kts | 105° |
| 2026-04-25 06:49 | -2.53934 | 140.39137 | 18286 ft | 211 kts | 105° |
| 2026-04-25 06:49 | -2.54369 | 140.40540 | 18209 ft | 211 kts | 105° |
| 2026-04-25 06:50 | -2.54805 | 140.41943 | 18129 ft | 209 kts | 105° |
| 2026-04-25 06:50 | -2.55235 | 140.43338 | 18074 ft | 210 kts | 105° |
| 2026-04-25 06:50 | -2.55662 | 140.44731 | 18003 ft | 207 kts | 105° |
| 2026-04-25 06:50 | -2.56076 | 140.46069 | 17818 ft | 200 kts | 105° |
| 2026-04-25 06:51 | -2.56494 | 140.47414 | 17640 ft | 203 kts | 105° |
| 2026-04-25 06:51 | -2.56918 | 140.48770 | 17453 ft | 207 kts | 105° |
| 2026-04-25 06:51 | -2.57341 | 140.50134 | 17349 ft | 205 kts | 105° |
| 2026-04-25 06:51 | -2.57814 | 140.51459 | 17077 ft | 203 kts | 112° |
| 2026-04-25 06:52 | -2.58527 | 140.52689 | 16664 ft | 207 kts | 122° |
| 2026-04-25 06:52 | -2.59394 | 140.53850 | 16298 ft | 207 kts | 123° |
| 2026-04-25 06:52 | -2.60272 | 140.54997 | 15944 ft | 206 kts | 123° |
| 2026-04-25 06:52 | -2.61123 | 140.56134 | 15575 ft | 207 kts | 122° |
| 2026-04-25 06:53 | -2.61861 | 140.57355 | 15328 ft | 199 kts | 102° |
| 2026-04-25 06:53 | -2.61965 | 140.58719 | 15323 ft | 199 kts | 88° |
| 2026-04-25 06:53 | -2.61984 | 140.60113 | 15322 ft | 203 kts | 91° |
| 2026-04-25 06:53 | -2.62120 | 140.61517 | 15309 ft | 202 kts | 96° |
| 2026-04-25 06:54 | -2.62367 | 140.62901 | 15307 ft | 201 kts | 100° |
| 2026-04-25 06:54 | -2.62719 | 140.64255 | 15307 ft | 202 kts | 105° |
| 2026-04-25 06:54 | -2.63193 | 140.65581 | 15303 ft | 203 kts | 109° |
| 2026-04-25 06:54 | -2.63791 | 140.66864 | 15302 ft | 204 kts | 115° |
| 2026-04-25 06:55 | -2.64518 | 140.68082 | 15311 ft | 204 kts | 121° |
| 2026-04-25 06:55 | -2.65376 | 140.69208 | 15304 ft | 206 kts | 127° |
| 2026-04-25 06:55 | -2.66387 | 140.70244 | 15310 ft | 209 kts | 134° |
| 2026-04-25 06:55 | -2.67540 | 140.71149 | 15305 ft | 210 kts | 142° |
| 2026-04-25 06:56 | -2.68825 | 140.71869 | 15309 ft | 212 kts | 151° |
| 2026-04-25 06:56 | -2.70226 | 140.72359 | 15304 ft | 214 kts | 162° |
| 2026-04-25 06:56 | -2.71732 | 140.72600 | 15277 ft | 216 kts | 170° |
| 2026-04-25 06:56 | -2.73243 | 140.72627 | 15222 ft | 218 kts | 179° |
| 2026-04-25 06:57 | -2.74740 | 140.72365 | 15117 ft | 222 kts | 194° |
| 2026-04-25 06:57 | -2.76147 | 140.71657 | 14798 ft | 231 kts | 214° |
| 2026-04-25 06:57 | -2.77222 | 140.70438 | 14282 ft | 241 kts | 240° |
| 2026-04-25 06:57 | -2.77664 | 140.68849 | 13961 ft | 237 kts | 267° |
| 2026-04-25 06:58 | -2.77484 | 140.67253 | 13815 ft | 223 kts | 291° |
| 2026-04-25 06:58 | -2.76666 | 140.66013 | 13789 ft | 216 kts | 323° |
| 2026-04-25 06:58 | -2.75346 | 140.65323 | 13792 ft | 213 kts | 347° |
| 2026-04-25 06:58 | -2.73881 | 140.65173 | 13783 ft | 207 kts | 11° |
| 2026-04-25 06:59 | -2.72567 | 140.65668 | 13788 ft | 202 kts | 38° |
| 2026-04-25 06:59 | -2.71603 | 140.66681 | 13793 ft | 198 kts | 58° |
| 2026-04-25 06:59 | -2.71073 | 140.67932 | 13788 ft | 199 kts | 80° |
| 2026-04-25 06:59 | -2.71146 | 140.69308 | 13792 ft | 198 kts | 104° |
| 2026-04-25 07:00 | -2.71763 | 140.70538 | 13788 ft | 201 kts | 123° |
| 2026-04-25 07:00 | -2.72810 | 140.71468 | 13781 ft | 207 kts | 148° |
| 2026-04-25 07:00 | -2.74236 | 140.71832 | 13763 ft | 215 kts | 175° |
| 2026-04-25 07:00 | -2.75717 | 140.71561 | 13561 ft | 221 kts | 200° |
| 2026-04-25 07:01 | -2.76974 | 140.70654 | 13100 ft | 231 kts | 230° |
| 2026-04-25 07:01 | -2.77630 | 140.69191 | 12728 ft | 230 kts | 260° |
| 2026-04-25 07:01 | -2.77601 | 140.67650 | 12558 ft | 219 kts | 285° |
| 2026-04-25 07:01 | -2.76934 | 140.66321 | 12518 ft | 213 kts | 315° |
| 2026-04-25 07:02 | -2.75758 | 140.65462 | 12519 ft | 210 kts | 340° |
| 2026-04-25 07:02 | -2.74361 | 140.65149 | 12515 ft | 204 kts | 3° |
| 2026-04-25 07:02 | -2.72982 | 140.65451 | 12518 ft | 198 kts | 29° |
| 2026-04-25 07:02 | -2.71899 | 140.66277 | 12527 ft | 195 kts | 50° |
| 2026-04-25 07:03 | -2.71208 | 140.67432 | 12519 ft | 194 kts | 72° |
| 2026-04-25 07:03 | -2.71056 | 140.68747 | 12524 ft | 193 kts | 95° |
| 2026-04-25 07:03 | -2.71441 | 140.70050 | 12517 ft | 196 kts | 115° |
| 2026-04-25 07:03 | -2.72293 | 140.71114 | 12508 ft | 201 kts | 138° |
| 2026-04-25 07:04 | -2.73571 | 140.71733 | 12510 ft | 206 kts | 163° |
| 2026-04-25 07:04 | -2.75028 | 140.71777 | 12407 ft | 214 kts | 187° |
| 2026-04-25 07:04 | -2.76411 | 140.71179 | 12076 ft | 222 kts | 216° |
| 2026-04-25 07:04 | -2.77369 | 140.69974 | 11625 ft | 229 kts | 245° |
| 2026-04-25 07:05 | -2.77705 | 140.68455 | 11369 ft | 222 kts | 271° |
| 2026-04-25 07:05 | -2.77378 | 140.67001 | 11269 ft | 210 kts | 300° |
| 2026-04-25 07:05 | -2.76456 | 140.65895 | 11283 ft | 207 kts | 324° |
| 2026-04-25 07:05 | -2.75177 | 140.65245 | 11276 ft | 204 kts | 349° |
| 2026-04-25 07:06 | -2.73794 | 140.65198 | 11276 ft | 198 kts | 15° |
| 2026-04-25 07:06 | -2.72528 | 140.65727 | 11282 ft | 194 kts | 36° |
| 2026-04-25 07:06 | -2.71581 | 140.66653 | 11281 ft | 192 kts | 58° |
| 2026-04-25 07:06 | -2.71104 | 140.67899 | 11284 ft | 191 kts | 80° |
| 2026-04-25 07:07 | -2.71128 | 140.69205 | 11285 ft | 192 kts | 100° |
| 2026-04-25 07:07 | -2.71657 | 140.70438 | 11279 ft | 194 kts | 123° |
| 2026-04-25 07:07 | -2.72665 | 140.71346 | 11277 ft | 199 kts | 146° |
| 2026-04-25 07:07 | -2.73998 | 140.71817 | 11274 ft | 205 kts | 169° |
| 2026-04-25 07:08 | -2.75431 | 140.71683 | 11111 ft | 213 kts | 196° |
| 2026-04-25 07:08 | -2.76704 | 140.70895 | 10706 ft | 221 kts | 224° |
| 2026-04-25 07:08 | -2.77527 | 140.69604 | 10300 ft | 224 kts | 250° |
| 2026-04-25 07:08 | -2.77694 | 140.68092 | 10085 ft | 214 kts | 279° |
| 2026-04-25 07:09 | -2.77213 | 140.66754 | 10020 ft | 204 kts | 304° |
| 2026-04-25 07:09 | -2.76230 | 140.65712 | 10026 ft | 204 kts | 328° |
| 2026-04-25 07:09 | -2.74940 | 140.65195 | 10021 ft | 198 kts | 355° |
| 2026-04-25 07:09 | -2.73583 | 140.65263 | 10021 ft | 194 kts | 17° |
| 2026-04-25 07:10 | -2.72369 | 140.65816 | 10021 ft | 189 kts | 39° |
| 2026-04-25 07:10 | -2.71511 | 140.66789 | 10023 ft | 188 kts | 62° |
| 2026-04-25 07:10 | -2.71089 | 140.68010 | 10028 ft | 186 kts | 81° |
| 2026-04-25 07:10 | -2.71137 | 140.69298 | 10031 ft | 187 kts | 102° |
| 2026-04-25 07:11 | -2.71718 | 140.70491 | 10028 ft | 192 kts | 124° |
| 2026-04-25 07:11 | -2.72705 | 140.71378 | 10020 ft | 194 kts | 146° |
| 2026-04-25 07:11 | -2.74002 | 140.71819 | 10021 ft | 201 kts | 170° |
| 2026-04-25 07:11 | -2.75428 | 140.71672 | 9867 ft | 208 kts | 196° |
| 2026-04-25 07:12 | -2.76673 | 140.70934 | 9466 ft | 216 kts | 223° |
| 2026-04-25 07:12 | -2.77696 | 140.68187 | 8858 ft | 210 kts | 276° |
| 2026-04-25 07:12 | -2.77278 | 140.66850 | 8782 ft | 200 kts | 302° |
| 2026-04-25 07:13 | -2.76358 | 140.65810 | 8792 ft | 201 kts | 326° |
| 2026-04-25 07:13 | -2.75106 | 140.65228 | 8786 ft | 195 kts | 351° |
| 2026-04-25 07:13 | -2.73772 | 140.65243 | 8780 ft | 190 kts | 20° |
| 2026-04-25 07:13 | -2.72697 | 140.65941 | 8789 ft | 186 kts | 51° |
| 2026-04-25 07:14 | -2.72081 | 140.67059 | 8788 ft | 184 kts | 72° |
| 2026-04-25 07:14 | -2.71852 | 140.68324 | 8795 ft | 183 kts | 79° |
| 2026-04-25 07:14 | -2.71312 | 140.69467 | 8783 ft | 186 kts | 43° |
| 2026-04-25 07:14 | -2.70163 | 140.70085 | 8694 ft | 191 kts | 15° |
| 2026-04-25 07:15 | -2.68834 | 140.70201 | 8361 ft | 196 kts | 356° |
| 2026-04-25 07:15 | -2.67532 | 140.69754 | 8000 ft | 204 kts | 325° |
| 2026-04-25 07:15 | -2.66649 | 140.68636 | 7643 ft | 209 kts | 293° |
| 2026-04-25 07:15 | -2.66363 | 140.67210 | 7273 ft | 213 kts | 268° |
| 2026-04-25 07:16 | -2.66554 | 140.65744 | 6983 ft | 211 kts | 258° |
| 2026-04-25 07:16 | -2.66746 | 140.64345 | 6861 ft | 200 kts | 271° |
| 2026-04-25 07:16 | -2.66327 | 140.63005 | 6376 ft | 207 kts | 303° |
| 2026-04-25 07:16 | -2.65432 | 140.61853 | 5839 ft | 215 kts | 311° |
| 2026-04-25 07:17 | -2.64285 | 140.60951 | 5567 ft | 204 kts | 343° |
| 2026-04-25 07:17 | -2.62947 | 140.60812 | 5501 ft | 186 kts | 347° |
| 2026-04-25 07:17 | -2.61746 | 140.60307 | 5054 ft | 198 kts | 327° |
| 2026-04-25 07:17 | -2.60725 | 140.59288 | 4338 ft | 220 kts | 302° |
| 2026-04-25 07:18 | -2.60146 | 140.57844 | 3598 ft | 235 kts | 279° |
| 2026-04-25 07:18 | -2.60137 | 140.56215 | 2773 ft | 245 kts | 259° |
| 2026-04-25 07:18 | -2.60828 | 140.54717 | 2304 ft | 233 kts | 221° |
| 2026-04-25 07:18 | -2.62254 | 140.54346 | 1963 ft | 213 kts | 158° |
| 2026-04-25 07:19 | -2.63166 | 140.55263 | 1967 ft | 162 kts | 96° |
| 2026-04-25 07:19 | -2.62775 | 140.56117 | 1830 ft | 146 kts | 23° |
| 2026-04-25 07:19 | -2.61797 | 140.55951 | 1702 ft | 151 kts | 325° |
| 2026-04-25 07:19 | -2.60931 | 140.55322 | 1583 ft | 157 kts | 323° |
| 2026-04-25 07:20 | -2.60025 | 140.54629 | 1366 ft | 166 kts | 326° |
| 2026-04-25 07:20 | -2.59279 | 140.53781 | 1082 ft | 163 kts | 303° |
| 2026-04-25 07:20 | -2.58605 | 140.52850 | 633 ft | 163 kts | 307° |
| 2026-04-25 07:20 | -2.57948 | 140.51981 | 426 ft | 150 kts | 307° |
| 2026-04-25 07:21 | -2.57409 | 140.51248 | 437 ft | 99 kts | 311° |
| 2026-04-25 07:21 | -2.57130 | 140.50893 | 446 ft | 23 kts | 309° |